sensor_id;sensor_type;location;lat;lon;timestamp;temperature;humidity
73277;DHT22;61501;43.316;5.372;2024-02-16T00:00:07;13.30;99.90
73277;DHT22;61501;43.316;5.372;2024-02-16T00:02:33;13.40;99.90
73277;DHT22;61501;43.316;5.372;2024-02-16T00:04:58;13.40;99.90
73277;DHT22;61501;43.316;5.372;2024-02-16T00:07:24;13.30;99.90
73277;DHT22;61501;43.316;5.372;2024-02-16T00:09:50;13.40;99.90
73277;DHT22;61501;43.316;5.372;2024-02-16T00:12:16;13.40;99.90
73277;DHT22;61501;43.316;5.372;2024-02-16T00:14:42;13.40;99.90
73277;DHT22;61501;43.316;5.372;2024-02-16T00:17:08;13.40;99.90
73277;DHT22;61501;43.316;5.372;2024-02-16T00:22:28;13.50;99.90
73277;DHT22;61501;43.316;5.372;2024-02-16T00:25:00;13.50;99.90
73277;DHT22;61501;43.316;5.372;2024-02-16T00:27:26;13.40;99.90
73277;DHT22;61501;43.316;5.372;2024-02-16T00:29:51;13.40;99.90
73277;DHT22;61501;43.316;5.372;2024-02-16T00:32:20;13.40;99.90
73277;DHT22;61501;43.316;5.372;2024-02-16T00:34:46;13.40;99.90
73277;DHT22;61501;43.316;5.372;2024-02-16T00:37:11;13.40;99.90
73277;DHT22;61501;43.316;5.372;2024-02-16T00:39:40;13.40;99.90
73277;DHT22;61501;43.316;5.372;2024-02-16T00:42:06;13.40;99.90
73277;DHT22;61501;43.316;5.372;2024-02-16T00:44:32;13.40;99.90
73277;DHT22;61501;43.316;5.372;2024-02-16T00:46:58;13.40;99.90
73277;DHT22;61501;43.316;5.372;2024-02-16T00:49:26;13.40;99.90
73277;DHT22;61501;43.316;5.372;2024-02-16T00:51:52;13.40;99.90
73277;DHT22;61501;43.316;5.372;2024-02-16T00:54:18;13.40;99.90
73277;DHT22;61501;43.316;5.372;2024-02-16T00:56:44;13.40;99.90
73277;DHT22;61501;43.316;5.372;2024-02-16T00:59:09;13.30;99.90
73277;DHT22;61501;43.316;5.372;2024-02-16T01:01:35;13.30;99.90
73277;DHT22;61501;43.316;5.372;2024-02-16T01:04:02;13.30;99.90
73277;DHT22;61501;43.316;5.372;2024-02-16T01:06:28;13.30;99.90
73277;DHT22;61501;43.316;5.372;2024-02-16T01:08:53;13.30;99.90
73277;DHT22;61501;43.316;5.372;2024-02-16T01:11:22;13.30;99.90
73277;DHT22;61501;43.316;5.372;2024-02-16T01:13:47;13.20;99.90
73277;DHT22;61501;43.316;5.372;2024-02-16T01:16:13;13.20;99.90
73277;DHT22;61501;43.316;5.372;2024-02-16T01:19:02;13.20;99.90
73277;DHT22;61501;43.316;5.372;2024-02-16T01:21:28;13.20;99.90
73277;DHT22;61501;43.316;5.372;2024-02-16T01:23:53;13.20;99.90
73277;DHT22;61501;43.316;5.372;2024-02-16T01:26:19;13.20;99.90
73277;DHT22;61501;43.316;5.372;2024-02-16T01:28:45;13.20;99.90
73277;DHT22;61501;43.316;5.372;2024-02-16T01:31:10;13.20;99.90
73277;DHT22;61501;43.316;5.372;2024-02-16T01:33:37;13.10;99.90
73277;DHT22;61501;43.316;5.372;2024-02-16T01:36:03;13.20;99.90
73277;DHT22;61501;43.316;5.372;2024-02-16T01:38:29;13.10;99.90
73277;DHT22;61501;43.316;5.372;2024-02-16T01:40:54;13.10;99.90
73277;DHT22;61501;43.316;5.372;2024-02-16T01:43:21;13.10;99.90
73277;DHT22;61501;43.316;5.372;2024-02-16T01:45:47;13.10;99.90
73277;DHT22;61501;43.316;5.372;2024-02-16T01:48:14;13.20;99.90
73277;DHT22;61501;43.316;5.372;2024-02-16T01:50:43;13.10;99.90
73277;DHT22;61501;43.316;5.372;2024-02-16T01:53:09;13.20;99.90
73277;DHT22;61501;43.316;5.372;2024-02-16T01:55:36;13.20;99.90
73277;DHT22;61501;43.316;5.372;2024-02-16T01:58:03;13.10;99.90
73277;DHT22;61501;43.316;5.372;2024-02-16T02:00:29;13.10;99.90
73277;DHT22;61501;43.316;5.372;2024-02-16T02:02:55;13.10;99.90
73277;DHT22;61501;43.316;5.372;2024-02-16T02:05:22;13.10;99.90
73277;DHT22;61501;43.316;5.372;2024-02-16T02:07:48;13.20;99.90
73277;DHT22;61501;43.316;5.372;2024-02-16T02:10:14;13.10;99.90
73277;DHT22;61501;43.316;5.372;2024-02-16T02:12:40;13.10;99.90
73277;DHT22;61501;43.316;5.372;2024-02-16T02:15:08;13.20;99.90
73277;DHT22;61501;43.316;5.372;2024-02-16T02:17:34;13.20;99.90
73277;DHT22;61501;43.316;5.372;2024-02-16T02:20:00;13.10;99.90
73277;DHT22;61501;43.316;5.372;2024-02-16T02:22:26;13.10;99.90
73277;DHT22;61501;43.316;5.372;2024-02-16T02:24:53;13.10;99.90
73277;DHT22;61501;43.316;5.372;2024-02-16T02:27:21;13.10;99.90
73277;DHT22;61501;43.316;5.372;2024-02-16T02:29:46;13.10;99.90
73277;DHT22;61501;43.316;5.372;2024-02-16T02:32:12;13.00;99.90
73277;DHT22;61501;43.316;5.372;2024-02-16T02:34:38;13.00;99.90
73277;DHT22;61501;43.316;5.372;2024-02-16T02:37:04;13.00;99.90
73277;DHT22;61501;43.316;5.372;2024-02-16T02:39:31;13.00;99.90
73277;DHT22;61501;43.316;5.372;2024-02-16T02:41:57;13.00;99.90
73277;DHT22;61501;43.316;5.372;2024-02-16T02:44:26;12.90;99.90
73277;DHT22;61501;43.316;5.372;2024-02-16T02:46:52;12.90;99.90
73277;DHT22;61501;43.316;5.372;2024-02-16T02:49:18;12.90;99.90
73277;DHT22;61501;43.316;5.372;2024-02-16T02:51:44;12.80;99.90
73277;DHT22;61501;43.316;5.372;2024-02-16T02:54:10;12.80;99.90
73277;DHT22;61501;43.316;5.372;2024-02-16T02:56:36;12.80;99.90
73277;DHT22;61501;43.316;5.372;2024-02-16T02:59:01;12.80;99.90
73277;DHT22;61501;43.316;5.372;2024-02-16T03:01:35;12.70;99.90
73277;DHT22;61501;43.316;5.372;2024-02-16T03:04:01;12.70;99.90
73277;DHT22;61501;43.316;5.372;2024-02-16T03:06:26;12.70;99.90
73277;DHT22;61501;43.316;5.372;2024-02-16T03:08:52;12.70;99.90
73277;DHT22;61501;43.316;5.372;2024-02-16T03:11:18;12.60;99.90
73277;DHT22;61501;43.316;5.372;2024-02-16T03:13:44;12.60;99.90
73277;DHT22;61501;43.316;5.372;2024-02-16T03:16:09;12.70;99.90
73277;DHT22;61501;43.316;5.372;2024-02-16T03:18:36;12.60;99.90
73277;DHT22;61501;43.316;5.372;2024-02-16T03:21:02;12.60;99.90
73277;DHT22;61501;43.316;5.372;2024-02-16T03:23:28;12.60;99.90
73277;DHT22;61501;43.316;5.372;2024-02-16T03:25:53;12.50;99.90
73277;DHT22;61501;43.316;5.372;2024-02-16T03:28:20;12.60;99.90
73277;DHT22;61501;43.316;5.372;2024-02-16T03:30:46;12.60;99.90
73277;DHT22;61501;43.316;5.372;2024-02-16T03:33:12;12.60;99.90
73277;DHT22;61501;43.316;5.372;2024-02-16T03:35:38;12.70;99.90
73277;DHT22;61501;43.316;5.372;2024-02-16T03:38:05;12.70;99.90
73277;DHT22;61501;43.316;5.372;2024-02-16T03:40:31;12.70;99.90
73277;DHT22;61501;43.316;5.372;2024-02-16T03:42:57;12.70;99.90
73277;DHT22;61501;43.316;5.372;2024-02-16T03:45:25;12.70;99.90
73277;DHT22;61501;43.316;5.372;2024-02-16T03:47:56;12.60;99.90
73277;DHT22;61501;43.316;5.372;2024-02-16T03:50:22;12.70;99.90
73277;DHT22;61501;43.316;5.372;2024-02-16T03:52:50;12.70;99.90
73277;DHT22;61501;43.316;5.372;2024-02-16T03:55:16;12.60;99.90
73277;DHT22;61501;43.316;5.372;2024-02-16T03:57:41;12.60;99.90
73277;DHT22;61501;43.316;5.372;2024-02-16T04:00:07;12.60;99.90
73277;DHT22;61501;43.316;5.372;2024-02-16T04:02:34;12.60;99.90
73277;DHT22;61501;43.316;5.372;2024-02-16T04:04:59;12.60;99.90
73277;DHT22;61501;43.316;5.372;2024-02-16T04:07:25;12.60;99.90
73277;DHT22;61501;43.316;5.372;2024-02-16T04:09:50;12.50;99.90
73277;DHT22;61501;43.316;5.372;2024-02-16T04:12:16;12.60;99.90
73277;DHT22;61501;43.316;5.372;2024-02-16T04:14:42;12.60;99.90
73277;DHT22;61501;43.316;5.372;2024-02-16T04:17:08;12.60;99.90
73277;DHT22;61501;43.316;5.372;2024-02-16T04:19:36;12.60;99.90
73277;DHT22;61501;43.316;5.372;2024-02-16T04:22:02;12.50;99.90
73277;DHT22;61501;43.316;5.372;2024-02-16T04:24:29;12.50;99.90
73277;DHT22;61501;43.316;5.372;2024-02-16T04:26:55;12.40;99.90
73277;DHT22;61501;43.316;5.372;2024-02-16T04:29:20;12.40;99.90
73277;DHT22;61501;43.316;5.372;2024-02-16T04:31:46;12.30;99.90
73277;DHT22;61501;43.316;5.372;2024-02-16T04:34:13;12.30;99.90
73277;DHT22;61501;43.316;5.372;2024-02-16T04:36:38;12.30;99.90
73277;DHT22;61501;43.316;5.372;2024-02-16T04:39:04;12.30;99.90
73277;DHT22;61501;43.316;5.372;2024-02-16T04:41:30;12.20;99.90
73277;DHT22;61501;43.316;5.372;2024-02-16T04:43:55;12.20;99.90
73277;DHT22;61501;43.316;5.372;2024-02-16T04:46:21;12.20;99.90
73277;DHT22;61501;43.316;5.372;2024-02-16T04:48:47;12.20;99.90
73277;DHT22;61501;43.316;5.372;2024-02-16T04:51:13;12.20;99.90
73277;DHT22;61501;43.316;5.372;2024-02-16T04:53:39;12.10;99.90
73277;DHT22;61501;43.316;5.372;2024-02-16T04:56:05;12.20;99.90
73277;DHT22;61501;43.316;5.372;2024-02-16T04:58:31;12.20;99.90
73277;DHT22;61501;43.316;5.372;2024-02-16T05:00:57;12.20;99.90
73277;DHT22;61501;43.316;5.372;2024-02-16T05:03:23;12.20;99.90
73277;DHT22;61501;43.316;5.372;2024-02-16T05:05:49;12.30;99.90
73277;DHT22;61501;43.316;5.372;2024-02-16T05:08:15;12.30;99.90
73277;DHT22;61501;43.316;5.372;2024-02-16T05:10:40;12.30;99.90
73277;DHT22;61501;43.316;5.372;2024-02-16T05:13:06;12.30;99.90
73277;DHT22;61501;43.316;5.372;2024-02-16T05:15:32;12.30;99.90
73277;DHT22;61501;43.316;5.372;2024-02-16T05:17:58;12.30;99.90
73277;DHT22;61501;43.316;5.372;2024-02-16T05:20:26;12.30;99.90
73277;DHT22;61501;43.316;5.372;2024-02-16T05:22:52;12.30;99.90
73277;DHT22;61501;43.316;5.372;2024-02-16T05:25:18;12.40;99.90
73277;DHT22;61501;43.316;5.372;2024-02-16T05:27:45;12.40;99.90
73277;DHT22;61501;43.316;5.372;2024-02-16T05:30:13;12.40;99.90
73277;DHT22;61501;43.316;5.372;2024-02-16T05:32:41;12.30;99.90
73277;DHT22;61501;43.316;5.372;2024-02-16T05:35:08;12.30;99.90
73277;DHT22;61501;43.316;5.372;2024-02-16T05:37:42;12.30;99.90
73277;DHT22;61501;43.316;5.372;2024-02-16T05:40:13;12.40;99.90
73277;DHT22;61501;43.316;5.372;2024-02-16T05:42:57;12.30;99.90
73277;DHT22;61501;43.316;5.372;2024-02-16T05:45:23;12.20;99.90
73277;DHT22;61501;43.316;5.372;2024-02-16T05:47:50;12.20;99.90
73277;DHT22;61501;43.316;5.372;2024-02-16T05:50:16;12.30;99.90
73277;DHT22;61501;43.316;5.372;2024-02-16T05:52:42;12.30;99.90
73277;DHT22;61501;43.316;5.372;2024-02-16T05:55:09;12.30;99.90
73277;DHT22;61501;43.316;5.372;2024-02-16T05:57:36;12.30;99.90
73277;DHT22;61501;43.316;5.372;2024-02-16T06:00:03;12.20;99.90
73277;DHT22;61501;43.316;5.372;2024-02-16T06:02:31;12.20;99.90
73277;DHT22;61501;43.316;5.372;2024-02-16T06:04:56;12.20;99.90
73277;DHT22;61501;43.316;5.372;2024-02-16T06:07:23;12.20;99.90
73277;DHT22;61501;43.316;5.372;2024-02-16T06:09:49;12.10;99.90
73277;DHT22;61501;43.316;5.372;2024-02-16T06:12:14;12.10;99.90
73277;DHT22;61501;43.316;5.372;2024-02-16T06:14:41;12.10;99.90
73277;DHT22;61501;43.316;5.372;2024-02-16T06:17:07;12.10;99.90
73277;DHT22;61501;43.316;5.372;2024-02-16T06:19:34;12.10;99.90
73277;DHT22;61501;43.316;5.372;2024-02-16T06:22:00;12.10;99.90
73277;DHT22;61501;43.316;5.372;2024-02-16T06:24:26;12.00;99.90
73277;DHT22;61501;43.316;5.372;2024-02-16T06:26:51;12.00;99.90
73277;DHT22;61501;43.316;5.372;2024-02-16T06:29:17;12.00;99.90
73277;DHT22;61501;43.316;5.372;2024-02-16T06:31:48;12.00;99.90
73277;DHT22;61501;43.316;5.372;2024-02-16T06:34:14;12.00;99.90
73277;DHT22;61501;43.316;5.372;2024-02-16T06:36:40;12.10;99.90
73277;DHT22;61501;43.316;5.372;2024-02-16T06:39:06;12.10;99.90
73277;DHT22;61501;43.316;5.372;2024-02-16T06:41:32;12.10;99.90
73277;DHT22;61501;43.316;5.372;2024-02-16T06:43:57;12.10;99.90
73277;DHT22;61501;43.316;5.372;2024-02-16T06:46:26;12.10;99.90
73277;DHT22;61501;43.316;5.372;2024-02-16T06:48:54;12.10;99.90
73277;DHT22;61501;43.316;5.372;2024-02-16T06:51:25;12.10;99.90
73277;DHT22;61501;43.316;5.372;2024-02-16T06:53:52;12.10;99.90
73277;DHT22;61501;43.316;5.372;2024-02-16T06:56:18;12.10;99.90
73277;DHT22;61501;43.316;5.372;2024-02-16T06:58:45;12.10;99.90
73277;DHT22;61501;43.316;5.372;2024-02-16T07:01:11;12.10;99.90
73277;DHT22;61501;43.316;5.372;2024-02-16T07:03:37;12.10;99.90
73277;DHT22;61501;43.316;5.372;2024-02-16T07:06:03;12.10;99.90
73277;DHT22;61501;43.316;5.372;2024-02-16T07:08:29;12.10;99.90
73277;DHT22;61501;43.316;5.372;2024-02-16T07:10:55;12.10;99.90
73277;DHT22;61501;43.316;5.372;2024-02-16T07:13:22;12.10;99.90
73277;DHT22;61501;43.316;5.372;2024-02-16T07:15:48;12.20;99.90
73277;DHT22;61501;43.316;5.372;2024-02-16T07:18:15;12.30;99.90
73277;DHT22;61501;43.316;5.372;2024-02-16T07:20:40;12.30;99.90
73277;DHT22;61501;43.316;5.372;2024-02-16T07:23:06;12.30;99.90
73277;DHT22;61501;43.316;5.372;2024-02-16T07:25:32;12.30;99.90
73277;DHT22;61501;43.316;5.372;2024-02-16T07:27:57;12.40;99.90
73277;DHT22;61501;43.316;5.372;2024-02-16T07:30:23;12.50;99.90
73277;DHT22;61501;43.316;5.372;2024-02-16T07:32:49;12.50;99.90
73277;DHT22;61501;43.316;5.372;2024-02-16T07:35:18;12.60;99.90
73277;DHT22;61501;43.316;5.372;2024-02-16T07:37:44;12.50;99.90
73277;DHT22;61501;43.316;5.372;2024-02-16T07:40:10;12.60;99.90
73277;DHT22;61501;43.316;5.372;2024-02-16T07:42:39;12.70;99.90
73277;DHT22;61501;43.316;5.372;2024-02-16T07:45:08;12.80;99.90
73277;DHT22;61501;43.316;5.372;2024-02-16T07:47:35;12.90;99.90
73277;DHT22;61501;43.316;5.372;2024-02-16T07:50:01;12.90;99.90
73277;DHT22;61501;43.316;5.372;2024-02-16T07:52:26;12.90;99.90
73277;DHT22;61501;43.316;5.372;2024-02-16T07:54:52;12.90;99.90
73277;DHT22;61501;43.316;5.372;2024-02-16T07:57:18;12.90;99.90
73277;DHT22;61501;43.316;5.372;2024-02-16T07:59:43;13.00;99.90
73277;DHT22;61501;43.316;5.372;2024-02-16T08:02:09;13.00;99.90
73277;DHT22;61501;43.316;5.372;2024-02-16T08:04:35;13.10;99.90
73277;DHT22;61501;43.316;5.372;2024-02-16T08:07:01;13.20;99.90
73277;DHT22;61501;43.316;5.372;2024-02-16T08:09:27;13.20;99.90
73277;DHT22;61501;43.316;5.372;2024-02-16T08:12:02;13.30;99.90
73277;DHT22;61501;43.316;5.372;2024-02-16T08:14:30;13.30;99.90
73277;DHT22;61501;43.316;5.372;2024-02-16T08:16:58;13.30;99.90
73277;DHT22;61501;43.316;5.372;2024-02-16T08:19:23;13.40;99.90
73277;DHT22;61501;43.316;5.372;2024-02-16T08:21:56;13.50;99.90
73277;DHT22;61501;43.316;5.372;2024-02-16T08:24:22;13.60;99.90
73277;DHT22;61501;43.316;5.372;2024-02-16T08:26:47;13.60;99.90
73277;DHT22;61501;43.316;5.372;2024-02-16T08:29:13;13.60;99.90
73277;DHT22;61501;43.316;5.372;2024-02-16T08:31:38;13.60;99.90
73277;DHT22;61501;43.316;5.372;2024-02-16T08:34:04;13.70;99.90
73277;DHT22;61501;43.316;5.372;2024-02-16T08:36:32;13.70;99.90
73277;DHT22;61501;43.316;5.372;2024-02-16T08:39:00;13.70;99.90
73277;DHT22;61501;43.316;5.372;2024-02-16T08:41:25;13.80;99.90
73277;DHT22;61501;43.316;5.372;2024-02-16T08:43:51;13.80;99.90
73277;DHT22;61501;43.316;5.372;2024-02-16T08:46:17;13.90;99.90
73277;DHT22;61501;43.316;5.372;2024-02-16T08:48:44;13.70;99.90
73277;DHT22;61501;43.316;5.372;2024-02-16T08:51:10;13.70;99.90
73277;DHT22;61501;43.316;5.372;2024-02-16T08:53:36;13.80;99.90
73277;DHT22;61501;43.316;5.372;2024-02-16T08:56:02;13.90;99.90
73277;DHT22;61501;43.316;5.372;2024-02-16T08:58:27;14.10;99.90
73277;DHT22;61501;43.316;5.372;2024-02-16T09:00:53;14.10;99.90
73277;DHT22;61501;43.316;5.372;2024-02-16T09:03:19;14.10;99.90
73277;DHT22;61501;43.316;5.372;2024-02-16T09:05:45;14.10;99.90
73277;DHT22;61501;43.316;5.372;2024-02-16T09:08:11;14.10;99.90
73277;DHT22;61501;43.316;5.372;2024-02-16T09:10:37;14.20;99.90
73277;DHT22;61501;43.316;5.372;2024-02-16T09:13:02;14.30;99.90
73277;DHT22;61501;43.316;5.372;2024-02-16T09:15:28;14.40;99.90
73277;DHT22;61501;43.316;5.372;2024-02-16T09:17:54;14.50;99.90
73277;DHT22;61501;43.316;5.372;2024-02-16T09:20:19;14.70;99.90
73277;DHT22;61501;43.316;5.372;2024-02-16T09:22:48;14.80;99.90
73277;DHT22;61501;43.316;5.372;2024-02-16T09:25:14;14.70;99.90
73277;DHT22;61501;43.316;5.372;2024-02-16T09:27:40;14.70;99.90
73277;DHT22;61501;43.316;5.372;2024-02-16T09:30:13;14.90;99.90
73277;DHT22;61501;43.316;5.372;2024-02-16T09:32:39;15.10;99.90
73277;DHT22;61501;43.316;5.372;2024-02-16T09:35:05;15.20;99.90
73277;DHT22;61501;43.316;5.372;2024-02-16T09:37:31;15.20;99.90
73277;DHT22;61501;43.316;5.372;2024-02-16T09:39:57;15.40;99.90
73277;DHT22;61501;43.316;5.372;2024-02-16T09:42:23;15.50;99.90
73277;DHT22;61501;43.316;5.372;2024-02-16T09:44:52;15.70;99.90
73277;DHT22;61501;43.316;5.372;2024-02-16T09:47:21;15.70;99.90
73277;DHT22;61501;43.316;5.372;2024-02-16T09:49:47;15.80;99.90
73277;DHT22;61501;43.316;5.372;2024-02-16T09:52:13;15.80;99.90
73277;DHT22;61501;43.316;5.372;2024-02-16T09:54:39;15.70;99.90
73277;DHT22;61501;43.316;5.372;2024-02-16T09:57:06;15.70;99.90
73277;DHT22;61501;43.316;5.372;2024-02-16T09:59:31;15.70;99.90
73277;DHT22;61501;43.316;5.372;2024-02-16T10:02:04;15.70;99.90
73277;DHT22;61501;43.316;5.372;2024-02-16T10:04:32;15.60;99.90
73277;DHT22;61501;43.316;5.372;2024-02-16T10:06:58;15.70;99.90
73277;DHT22;61501;43.316;5.372;2024-02-16T10:09:28;15.70;99.90
73277;DHT22;61501;43.316;5.372;2024-02-16T10:11:58;15.60;99.90
73277;DHT22;61501;43.316;5.372;2024-02-16T10:14:26;15.60;99.90
73277;DHT22;61501;43.316;5.372;2024-02-16T10:17:02;15.70;99.90
73277;DHT22;61501;43.316;5.372;2024-02-16T10:19:29;15.80;99.90
73277;DHT22;61501;43.316;5.372;2024-02-16T10:22:11;15.80;99.90
73277;DHT22;61501;43.316;5.372;2024-02-16T10:24:38;15.80;99.90
73277;DHT22;61501;43.316;5.372;2024-02-16T10:27:16;15.50;99.90
73277;DHT22;61501;43.316;5.372;2024-02-16T10:29:44;15.30;99.90
73277;DHT22;61501;43.316;5.372;2024-02-16T10:32:15;15.30;99.90
73277;DHT22;61501;43.316;5.372;2024-02-16T10:34:41;15.40;99.90
73277;DHT22;61501;43.316;5.372;2024-02-16T10:37:09;15.30;99.90
73277;DHT22;61501;43.316;5.372;2024-02-16T10:39:35;15.40;99.90
73277;DHT22;61501;43.316;5.372;2024-02-16T10:42:01;15.50;99.90
73277;DHT22;61501;43.316;5.372;2024-02-16T10:44:28;15.60;99.90
73277;DHT22;61501;43.316;5.372;2024-02-16T10:46:55;15.70;99.90
73277;DHT22;61501;43.316;5.372;2024-02-16T10:49:26;15.90;99.90
73277;DHT22;61501;43.316;5.372;2024-02-16T10:51:55;16.10;99.90
73277;DHT22;61501;43.316;5.372;2024-02-16T10:54:26;16.00;99.90
73277;DHT22;61501;43.316;5.372;2024-02-16T10:56:55;15.80;99.90
73277;DHT22;61501;43.316;5.372;2024-02-16T10:59:21;15.70;99.90
73277;DHT22;61501;43.316;5.372;2024-02-16T11:01:47;15.90;99.90
73277;DHT22;61501;43.316;5.372;2024-02-16T11:04:17;16.00;99.90
73277;DHT22;61501;43.316;5.372;2024-02-16T11:06:52;15.80;99.90
73277;DHT22;61501;43.316;5.372;2024-02-16T11:12:06;15.80;99.90
73277;DHT22;61501;43.316;5.372;2024-02-16T11:14:37;15.70;99.90
73277;DHT22;61501;43.316;5.372;2024-02-16T11:17:10;15.70;99.90
73277;DHT22;61501;43.316;5.372;2024-02-16T11:19:37;15.80;99.90
73277;DHT22;61501;43.316;5.372;2024-02-16T11:22:04;15.80;99.90
73277;DHT22;61501;43.316;5.372;2024-02-16T11:24:34;15.60;99.90
73277;DHT22;61501;43.316;5.372;2024-02-16T11:27:07;15.70;99.90
73277;DHT22;61501;43.316;5.372;2024-02-16T11:29:35;15.60;99.90
73277;DHT22;61501;43.316;5.372;2024-02-16T11:32:02;15.50;99.90
73277;DHT22;61501;43.316;5.372;2024-02-16T11:34:29;15.40;99.90
73277;DHT22;61501;43.316;5.372;2024-02-16T11:36:59;15.40;99.90
73277;DHT22;61501;43.316;5.372;2024-02-16T11:39:28;15.30;99.90
73277;DHT22;61501;43.316;5.372;2024-02-16T11:42:11;15.40;99.90
73277;DHT22;61501;43.316;5.372;2024-02-16T11:44:38;15.30;99.90
73277;DHT22;61501;43.316;5.372;2024-02-16T11:47:08;15.20;99.90
73277;DHT22;61501;43.316;5.372;2024-02-16T11:49:42;15.10;99.90
73277;DHT22;61501;43.316;5.372;2024-02-16T11:52:08;15.10;99.90
73277;DHT22;61501;43.316;5.372;2024-02-16T11:54:34;15.30;99.90
73277;DHT22;61501;43.316;5.372;2024-02-16T11:57:03;15.30;99.90
73277;DHT22;61501;43.316;5.372;2024-02-16T11:59:28;15.10;99.90
73277;DHT22;61501;43.316;5.372;2024-02-16T12:01:57;15.00;99.90
73277;DHT22;61501;43.316;5.372;2024-02-16T12:04:26;14.90;99.90
73277;DHT22;61501;43.316;5.372;2024-02-16T12:06:57;14.90;99.90
73277;DHT22;61501;43.316;5.372;2024-02-16T12:09:23;14.80;99.90
73277;DHT22;61501;43.316;5.372;2024-02-16T12:11:51;14.70;99.90
73277;DHT22;61501;43.316;5.372;2024-02-16T12:14:18;14.80;99.90
73277;DHT22;61501;43.316;5.372;2024-02-16T12:17:10;14.80;99.90
73277;DHT22;61501;43.316;5.372;2024-02-16T12:19:36;14.80;99.90
73277;DHT22;61501;43.316;5.372;2024-02-16T12:22:01;14.80;99.90
73277;DHT22;61501;43.316;5.372;2024-02-16T12:24:27;14.80;99.90
73277;DHT22;61501;43.316;5.372;2024-02-16T12:26:52;14.90;99.90
73277;DHT22;61501;43.316;5.372;2024-02-16T12:29:18;15.00;99.90
73277;DHT22;61501;43.316;5.372;2024-02-16T12:31:45;15.00;99.90
73277;DHT22;61501;43.316;5.372;2024-02-16T12:34:13;15.00;99.90
73277;DHT22;61501;43.316;5.372;2024-02-16T12:36:39;15.20;99.90
73277;DHT22;61501;43.316;5.372;2024-02-16T12:39:08;15.20;99.90
73277;DHT22;61501;43.316;5.372;2024-02-16T12:41:38;15.30;99.90
73277;DHT22;61501;43.316;5.372;2024-02-16T12:44:04;15.30;99.90
73277;DHT22;61501;43.316;5.372;2024-02-16T12:46:31;15.40;99.90
73277;DHT22;61501;43.316;5.372;2024-02-16T12:48:57;15.30;99.90
73277;DHT22;61501;43.316;5.372;2024-02-16T12:51:23;15.50;99.90
73277;DHT22;61501;43.316;5.372;2024-02-16T12:53:49;15.50;99.90
73277;DHT22;61501;43.316;5.372;2024-02-16T12:56:15;15.70;99.90
73277;DHT22;61501;43.316;5.372;2024-02-16T12:58:41;15.70;99.90
73277;DHT22;61501;43.316;5.372;2024-02-16T13:01:07;15.80;99.90
73277;DHT22;61501;43.316;5.372;2024-02-16T13:03:36;15.90;99.90
73277;DHT22;61501;43.316;5.372;2024-02-16T13:06:03;16.20;99.90
73277;DHT22;61501;43.316;5.372;2024-02-16T13:08:29;16.10;99.90
73277;DHT22;61501;43.316;5.372;2024-02-16T13:10:55;16.30;99.90
73277;DHT22;61501;43.316;5.372;2024-02-16T13:13:21;16.70;99.90
73277;DHT22;61501;43.316;5.372;2024-02-16T13:15:47;16.80;99.90
73277;DHT22;61501;43.316;5.372;2024-02-16T13:18:14;16.70;99.90
73277;DHT22;61501;43.316;5.372;2024-02-16T13:20:39;16.80;99.90
73277;DHT22;61501;43.316;5.372;2024-02-16T13:23:05;17.20;99.90
73277;DHT22;61501;43.316;5.372;2024-02-16T13:25:31;17.50;99.90
73277;DHT22;61501;43.316;5.372;2024-02-16T13:27:56;17.60;99.90
73277;DHT22;61501;43.316;5.372;2024-02-16T13:30:22;17.40;99.90
73277;DHT22;61501;43.316;5.372;2024-02-16T13:32:48;17.60;99.90
73277;DHT22;61501;43.316;5.372;2024-02-16T13:35:14;17.50;99.90
73277;DHT22;61501;43.316;5.372;2024-02-16T13:37:40;17.60;99.90
73277;DHT22;61501;43.316;5.372;2024-02-16T13:40:09;17.70;99.90
73277;DHT22;61501;43.316;5.372;2024-02-16T13:42:40;17.30;99.90
73277;DHT22;61501;43.316;5.372;2024-02-16T13:45:07;16.90;99.90
73277;DHT22;61501;43.316;5.372;2024-02-16T13:47:33;16.70;99.90
73277;DHT22;61501;43.316;5.372;2024-02-16T13:49:59;16.70;99.90
73277;DHT22;61501;43.316;5.372;2024-02-16T13:52:25;16.70;99.90
73277;DHT22;61501;43.316;5.372;2024-02-16T13:54:51;16.80;99.90
73277;DHT22;61501;43.316;5.372;2024-02-16T13:57:17;16.80;99.90
73277;DHT22;61501;43.316;5.372;2024-02-16T13:59:43;16.90;99.90
73277;DHT22;61501;43.316;5.372;2024-02-16T14:02:09;16.70;99.90
73277;DHT22;61501;43.316;5.372;2024-02-16T14:04:36;16.50;99.90
73277;DHT22;61501;43.316;5.372;2024-02-16T14:07:02;16.30;99.90
73277;DHT22;61501;43.316;5.372;2024-02-16T14:09:28;16.20;99.90
73277;DHT22;61501;43.316;5.372;2024-02-16T14:11:54;16.20;99.90
73277;DHT22;61501;43.316;5.372;2024-02-16T14:14:21;16.20;99.90
73277;DHT22;61501;43.316;5.372;2024-02-16T14:16:47;16.30;99.90
73277;DHT22;61501;43.316;5.372;2024-02-16T14:19:13;16.30;99.90
73277;DHT22;61501;43.316;5.372;2024-02-16T14:21:39;16.20;99.90
73277;DHT22;61501;43.316;5.372;2024-02-16T14:24:04;16.20;99.90
73277;DHT22;61501;43.316;5.372;2024-02-16T14:26:30;16.30;99.90
73277;DHT22;61501;43.316;5.372;2024-02-16T14:28:56;16.30;99.90
73277;DHT22;61501;43.316;5.372;2024-02-16T14:31:22;16.30;99.90
73277;DHT22;61501;43.316;5.372;2024-02-16T14:33:48;16.20;99.90
73277;DHT22;61501;43.316;5.372;2024-02-16T14:36:15;16.30;99.90
73277;DHT22;61501;43.316;5.372;2024-02-16T14:38:40;16.40;99.90
73277;DHT22;61501;43.316;5.372;2024-02-16T14:41:06;16.50;99.90
73277;DHT22;61501;43.316;5.372;2024-02-16T14:43:32;16.60;99.90
73277;DHT22;61501;43.316;5.372;2024-02-16T14:45:59;16.60;99.90
73277;DHT22;61501;43.316;5.372;2024-02-16T14:48:25;16.90;99.90
73277;DHT22;61501;43.316;5.372;2024-02-16T14:50:51;17.30;99.90
73277;DHT22;61501;43.316;5.372;2024-02-16T14:53:19;17.60;99.90
73277;DHT22;61501;43.316;5.372;2024-02-16T14:55:46;17.80;99.90
73277;DHT22;61501;43.316;5.372;2024-02-16T14:58:12;18.30;99.90
73277;DHT22;61501;43.316;5.372;2024-02-16T15:00:38;18.90;99.90
73277;DHT22;61501;43.316;5.372;2024-02-16T15:03:04;19.40;99.90
73277;DHT22;61501;43.316;5.372;2024-02-16T15:05:30;19.90;99.90
73277;DHT22;61501;43.316;5.372;2024-02-16T15:07:56;20.20;99.90
73277;DHT22;61501;43.316;5.372;2024-02-16T15:10:22;20.10;99.90
73277;DHT22;61501;43.316;5.372;2024-02-16T15:12:48;19.30;99.90
73277;DHT22;61501;43.316;5.372;2024-02-16T15:15:14;18.50;99.90
73277;DHT22;61501;43.316;5.372;2024-02-16T15:17:40;18.00;99.90
73277;DHT22;61501;43.316;5.372;2024-02-16T15:20:06;17.80;99.90
73277;DHT22;61501;43.316;5.372;2024-02-16T15:22:32;17.80;99.90
73277;DHT22;61501;43.316;5.372;2024-02-16T15:25:01;17.60;99.90
73277;DHT22;61501;43.316;5.372;2024-02-16T15:27:27;17.60;99.90
73277;DHT22;61501;43.316;5.372;2024-02-16T15:29:53;17.70;99.90
73277;DHT22;61501;43.316;5.372;2024-02-16T15:32:18;17.90;99.90